WetterOnline ( http://www.wetteronline.de )

Wetter aktuell Jever

Aktuelles Wetter: Bremerhaven (11m)

6-stündlich | Neueste Meldungen
Ortszeit Temperatur Wetter
Mo, 15.10. 14:00 21.0° C wolkenlos
Mo, 15.10. 8:00 13.0° C fast wolkenlos
Mo, 15.10. 2:00 16.2° C wolkenlos
So, 14.10. 20:00 20.8° C wolkenlos
So, 14.10. 14:00 22.0° C wolkenlos
So, 14.10. 8:00 14.1° C wolkenlos
So, 14.10. 2:00 18.0° C wolkenlos
Sa, 13.10. 20:00 22.8° C wolkenlos
Ortszeit Temperatur Wetter
Mo, 15.10. 19:30 21.0° C bedeckt
Mo, 15.10. 19:20 21.0° C bedeckt
Mo, 15.10. 19:10 20.6° C bedeckt
Mo, 15.10. 19:00 21.3° C bedeckt
Mo, 15.10. 18:50 21.3° C bedeckt
Mo, 15.10. 18:40 20.9° C bedeckt
Mo, 15.10. 18:30 20.0° C bedeckt
Mo, 15.10. 18:00 19.8° C wolkig
Mo, 15.10. 17:30 23.2° C leicht bewölkt
Mo, 15.10. 17:00 23.4° C wolkenlos
Mo, 15.10. 16:30 22.6° C wolkenlos
Ortszeit Relative Feuchte Sichtweite
Mo, 15.10. 14:00 55% 10 km
Mo, 15.10. 8:00 78% 10 km
Mo, 15.10. 2:00 69% 10 km
So, 14.10. 20:00 53% 10 km
So, 14.10. 14:00 50% 10 km
So, 14.10. 8:00 70% 10 km
So, 14.10. 2:00 58% 10 km
Sa, 13.10. 20:00 49% 10 km
Ortszeit Relative Feuchte Sichtweite
Mo, 15.10. 19:30 57% 10 km
Mo, 15.10. 19:20 57% -
Mo, 15.10. 19:10 59% -
Mo, 15.10. 19:00 56% 10 km
Mo, 15.10. 18:50 56% -
Mo, 15.10. 18:40 59% -
Mo, 15.10. 18:30 63% 10 km
Mo, 15.10. 18:00 62% 10 km
Mo, 15.10. 17:30 48% 10 km
Mo, 15.10. 17:00 46% 10 km
Mo, 15.10. 16:30 49% 10 km
Ortszeit Niederschlagsmenge Niederschlagsart
Mo, 15.10. 14:00 0.0 l/m2 in 6 Std. -
Mo, 15.10. 8:00 0.0 l/m2 in 12 Std. -
Mo, 15.10. 2:00 0.0 l/m2 in 6 Std. -
So, 14.10. 20:00 0.0 l/m2 in 12 Std. -
So, 14.10. 14:00 0.0 l/m2 in 6 Std. -
So, 14.10. 8:00 0.0 l/m2 in 12 Std. -
So, 14.10. 2:00 0.0 l/m2 in 6 Std. -
Sa, 13.10. 20:00 0.0 l/m2 in 12 Std. -
Ortszeit Niederschlagsmenge Niederschlagsart
Mo, 15.10. 19:30 0.0 l/m2 in 1 Std. -
Mo, 15.10. 19:20 keine Meldung -
Mo, 15.10. 19:10 keine Meldung -
Mo, 15.10. 19:00 0.0 l/m2 in 1 Std. -
Mo, 15.10. 18:50 keine Meldung -
Mo, 15.10. 18:40 keine Meldung -
Mo, 15.10. 18:30 0.0 l/m2 in 1 Std. -
Mo, 15.10. 18:00 0.0 l/m2 in 1 Std. -
Mo, 15.10. 17:30 0.0 l/m2 in 1 Std. -
Mo, 15.10. 17:00 0.0 l/m2 in 1 Std. -
Mo, 15.10. 16:30 0.0 l/m2 in 1 Std. -
Ortszeit Stärke Spitze Richtung
km/h Bft. km/h Grad Sektor
Mo, 15.10. 14:00 15 3 19 210° SW
Mo, 15.10. 8:00 9 2 20 130° SO
Mo, 15.10. 2:00 13 3 26 130° SO
So, 14.10. 20:00 15 3 35 140° SO
So, 14.10. 14:00 18 3 29 140° SO
So, 14.10. 8:00 18 3 29 120° SO
So, 14.10. 2:00 18 3 32 130° SO
Sa, 13.10. 20:00 17 3 33 130° SO
Ortszeit Stärke Spitze Richtung
km/h Bft. km/h Grad Sektor
Mo, 15.10. 19:30 9 2 13 180° S
Mo, 15.10. 19:20 9 2 - 180° S
Mo, 15.10. 19:10 7 2 - 180° S
Mo, 15.10. 19:00 7 2 11 190° S
Mo, 15.10. 18:50 7 2 - 190° S
Mo, 15.10. 18:40 7 2 - 170° S
Mo, 15.10. 18:30 7 2 11 190° S
Mo, 15.10. 18:00 9 2 19 200° S
Mo, 15.10. 17:30 14 3 18 190° S
Mo, 15.10. 17:00 7 2 18 190° S
Mo, 15.10. 16:30 11 2 18 210° SW
Ortszeit Untergrenze Bedeckung Gattung
total tief tief mittel hoch
Mo, 15.10. 14:00 - 0/8 0/8 - - -
Mo, 15.10. 8:00 2700 m 1/8 1/8 - - -
Mo, 15.10. 2:00 - 0/8 0/8 - - -
So, 14.10. 20:00 - 0/8 0/8 - - -
So, 14.10. 14:00 - 0/8 0/8 - - -
So, 14.10. 8:00 - 0/8 0/8 - - -
So, 14.10. 2:00 - 0/8 0/8 - - -
Sa, 13.10. 20:00 - 0/8 0/8 - - -
Ortszeit Bedeckungsgrad in Achtel und Wolkenuntergrenze
Mo, 15.10. 19:30 8(2400m)
Mo, 15.10. 19:20 8(2400m)
Mo, 15.10. 19:10 8(2100m)
Mo, 15.10. 19:00 8(2100m)
Mo, 15.10. 18:50 8(2100m)
Mo, 15.10. 18:40 8(2400m)
Mo, 15.10. 18:30 8(2400m) 8(3600m)
Mo, 15.10. 18:00 2(2400m) 7(3600m) 7(9000m)
Mo, 15.10. 17:30 4(3600m) 4(9000m)
Mo, 15.10. 17:00 keine Wolken
Mo, 15.10. 16:30 keine Wolken
Ortszeit Luftdruck NN (hPa) Tendenz (hPa in 3 Std.)
Mo, 15.10. 14:00 1012 0,0
Mo, 15.10. 8:00 1012 + 0,8
Mo, 15.10. 2:00 1011 + 0,2
So, 14.10. 20:00 1010 + 0,7
So, 14.10. 14:00 1010 - 1,7
So, 14.10. 8:00 1012 - 1,4
So, 14.10. 2:00 1015 - 0,8
Sa, 13.10. 20:00 1017 - 0,5
Ortszeit Luftdruck NN (hPa) Tendenz (hPa in 3 Std.)
Mo, 15.10. 19:30 1014 + 1,3
Mo, 15.10. 19:20 1014 keine Meldung
Mo, 15.10. 19:10 1014 keine Meldung
Mo, 15.10. 19:00 1014 + 1,0
Mo, 15.10. 18:50 1014 keine Meldung
Mo, 15.10. 18:40 1014 keine Meldung
Mo, 15.10. 18:30 1014 + 1,1
Mo, 15.10. 18:00 1013 + 0,8
Mo, 15.10. 17:30 1013 + 0,5
Mo, 15.10. 17:00 1013 + 0,3
Mo, 15.10. 16:30 1013 - 0,1
Ortszeit Schneehöhe (cm)
Mo, 15.10. 14:00 0
Mo, 15.10. 8:00 0
Mo, 15.10. 2:00 0
So, 14.10. 20:00 0
So, 14.10. 14:00 0
So, 14.10. 8:00 0
So, 14.10. 2:00 0
Sa, 13.10. 20:00 0
Ortszeit Schneehöhe (cm)
Mo, 15.10. 19:30 0
Mo, 15.10. 19:20 0
Mo, 15.10. 19:10 0
Mo, 15.10. 19:00 0
Mo, 15.10. 18:50 0
Mo, 15.10. 18:40 0
Mo, 15.10. 18:30 0
Mo, 15.10. 18:00 0
Mo, 15.10. 17:30 0
Mo, 15.10. 17:00 0
Mo, 15.10. 16:30 0
Link zu dieser Seite / Seite empfehlen

Das Wetter in ...